Collings Lakes, NJ

10:59 AM EDT on October 20, 2019 (GMT -0400)
Rosedale | | Change Station

Elev 66 ft 39.64 °N, 74.80 °W | Updated 31 seconds ago

Rain
Rain
55.6 °F
Feels Like 55.6 °F
N
0
Wind Variable Wind from SSW
Gusts 0.0 mph

Today
High -- | Low -- °F
--% Chance of Precip.
Yesterday
High -- | Low -- °F
Precip. -- in
Pressure 30.01 in
Visibility 10.0 miles
Clouds Few 3800 ft
Scattered Clouds 8000 ft
Overcast 11000 ft
Dew Point 54 °F
Humidity 95%
Rainfall 0.01 in
Snow Depth Not available.
7:14 AM 6:13 PM
Waning Gibbous, 60% visible
METAR KACY 201454Z 12007KT 10SM -RA FEW038 SCT080 OVC110 17/13 A3001 RMK AO2 RAB13 SLP162 P0001 60001 T01720133 58001
Pressure 30.01 in
Visibility 10.0 miles
Clouds Few 3800 ft
Scattered Clouds 8000 ft
Overcast 11000 ft
Dew Point 54 °F
Humidity 95%
Rainfall 0.01 in
Snow Depth Not available.
7:14 AM 6:13 PM
Waning Gibbous, 60% visible
METAR KACY 201454Z 12007KT 10SM -RA FEW038 SCT080 OVC110 17/13 A3001 RMK AO2 RAB13 SLP162 P0001 60001 T01720133 58001

Get Severe Weather Alerts

Thanks for signing up!

Be on the lookout for a verification email in your inbox.

You'll start receiving the daily forecast at 6 AM.

×

10-Day Weather Forecast

Almanac

Astronomy

Oct. 20, 2019 Rise Set
Actual Time
Civil Twilight
Nautical Twilight
Astronomical Twilight
Moon
Length of Visible Light
Length of Day
Tomorrow will be .
, % of the Moon is Illuminated

Today's Extremes

State Highs State Lows

Community

WunderPhotos

Category 6

Welcome to Category 6. This is the collective home for Weather Underground's featured writeups by Dr. Jeff Masters (right), Bob Henson (left), Chris Burt, and other regular contributors.

Nearby

Air Quality

  Air Quality AQ Index Pollutant
Not available.

Snow Depth

Station Depth Elevation

Earthquake Activity

City Distance Mag. Time & Date
Minimum magnitude displayed is 2.5.

Coastal Water Temperatures

Place Temperature

Stations

Nearby Weather Stations

Station Location Temp. Windchill Dew Point Humidity Wind Precip. Elev Updated Type
                   

Watches & Warnings

There are currently no watches in effect.